sensor_id;sensor_type;location;lat;lon;timestamp;P1;durP1;ratioP1;P2;durP2;ratioP2
76131;SDS011;64877;50.994;13.650;2022-12-18T00:01:28;58.72;;;21.50;;
76131;SDS011;64877;50.994;13.650;2022-12-18T00:03:56;70.32;;;27.50;;
76131;SDS011;64877;50.994;13.650;2022-12-18T00:06:22;52.05;;;18.95;;
76131;SDS011;64877;50.994;13.650;2022-12-18T00:08:49;34.10;;;15.02;;
76131;SDS011;64877;50.994;13.650;2022-12-18T00:11:15;32.13;;;14.60;;
76131;SDS011;64877;50.994;13.650;2022-12-18T00:13:42;27.95;;;13.30;;
76131;SDS011;64877;50.994;13.650;2022-12-18T00:16:12;29.73;;;13.52;;
76131;SDS011;64877;50.994;13.650;2022-12-18T00:18:39;28.65;;;12.10;;
76131;SDS011;64877;50.994;13.650;2022-12-18T00:21:05;23.80;;;12.32;;
76131;SDS011;64877;50.994;13.650;2022-12-18T00:23:32;29.13;;;13.20;;
76131;SDS011;64877;50.994;13.650;2022-12-18T00:26:03;27.73;;;13.88;;
76131;SDS011;64877;50.994;13.650;2022-12-18T00:28:32;32.72;;;16.25;;
76131;SDS011;64877;50.994;13.650;2022-12-18T00:33:26;25.52;;;11.15;;
76131;SDS011;64877;50.994;13.650;2022-12-18T00:35:52;24.05;;;10.50;;
76131;SDS011;64877;50.994;13.650;2022-12-18T00:38:17;27.83;;;12.63;;
76131;SDS011;64877;50.994;13.650;2022-12-18T00:40:42;30.73;;;14.88;;
76131;SDS011;64877;50.994;13.650;2022-12-18T00:43:08;24.05;;;11.52;;
76131;SDS011;64877;50.994;13.650;2022-12-18T00:45:34;24.73;;;10.50;;
76131;SDS011;64877;50.994;13.650;2022-12-18T00:47:59;24.08;;;10.73;;
76131;SDS011;64877;50.994;13.650;2022-12-18T00:50:25;30.02;;;13.52;;
76131;SDS011;64877;50.994;13.650;2022-12-18T00:52:51;24.42;;;11.48;;
76131;SDS011;64877;50.994;13.650;2022-12-18T00:55:16;25.00;;;11.38;;
76131;SDS011;64877;50.994;13.650;2022-12-18T00:57:42;28.00;;;10.52;;
76131;SDS011;64877;50.994;13.650;2022-12-18T01:00:09;23.15;;;10.55;;
76131;SDS011;64877;50.994;13.650;2022-12-18T01:02:37;22.50;;;9.85;;
76131;SDS011;64877;50.994;13.650;2022-12-18T01:05:02;23.98;;;10.40;;
76131;SDS011;64877;50.994;13.650;2022-12-18T01:07:28;26.20;;;9.30;;
76131;SDS011;64877;50.994;13.650;2022-12-18T01:09:54;25.73;;;10.05;;
76131;SDS011;64877;50.994;13.650;2022-12-18T01:12:19;28.50;;;11.05;;
76131;SDS011;64877;50.994;13.650;2022-12-18T01:14:44;22.77;;;9.43;;
76131;SDS011;64877;50.994;13.650;2022-12-18T01:17:10;22.23;;;9.48;;
76131;SDS011;64877;50.994;13.650;2022-12-18T01:19:35;22.70;;;9.32;;
76131;SDS011;64877;50.994;13.650;2022-12-18T01:22:00;32.13;;;12.15;;
76131;SDS011;64877;50.994;13.650;2022-12-18T01:24:26;24.73;;;9.95;;
76131;SDS011;64877;50.994;13.650;2022-12-18T01:26:51;20.50;;;9.00;;
76131;SDS011;64877;50.994;13.650;2022-12-18T01:29:17;22.42;;;9.43;;
76131;SDS011;64877;50.994;13.650;2022-12-18T01:31:42;26.20;;;11.38;;
76131;SDS011;64877;50.994;13.650;2022-12-18T01:34:08;26.50;;;11.00;;
76131;SDS011;64877;50.994;13.650;2022-12-18T01:36:34;19.95;;;9.70;;
76131;SDS011;64877;50.994;13.650;2022-12-18T01:39:03;20.80;;;9.32;;
76131;SDS011;64877;50.994;13.650;2022-12-18T01:41:35;22.08;;;9.63;;
76131;SDS011;64877;50.994;13.650;2022-12-18T01:47:14;23.08;;;8.93;;
76131;SDS011;64877;50.994;13.650;2022-12-18T01:49:43;22.23;;;9.65;;
76131;SDS011;64877;50.994;13.650;2022-12-18T01:52:08;22.63;;;7.93;;
76131;SDS011;64877;50.994;13.650;2022-12-18T01:54:33;16.55;;;7.68;;
76131;SDS011;64877;50.994;13.650;2022-12-18T01:56:59;20.10;;;8.70;;
76131;SDS011;64877;50.994;13.650;2022-12-18T01:59:25;23.15;;;9.68;;
76131;SDS011;64877;50.994;13.650;2022-12-18T02:01:52;19.23;;;8.65;;
76131;SDS011;64877;50.994;13.650;2022-12-18T02:06:48;20.35;;;9.50;;
76131;SDS011;64877;50.994;13.650;2022-12-18T02:09:25;21.73;;;9.48;;
76131;SDS011;64877;50.994;13.650;2022-12-18T02:12:18;17.73;;;8.23;;
76131;SDS011;64877;50.994;13.650;2022-12-18T02:14:54;21.95;;;9.88;;
76131;SDS011;64877;50.994;13.650;2022-12-18T02:17:43;22.58;;;8.82;;
76131;SDS011;64877;50.994;13.650;2022-12-18T02:20:21;20.55;;;8.75;;
76131;SDS011;64877;50.994;13.650;2022-12-18T02:28:37;21.10;;;8.70;;
76131;SDS011;64877;50.994;13.650;2022-12-18T02:31:07;20.02;;;7.55;;
76131;SDS011;64877;50.994;13.650;2022-12-18T02:33:38;22.42;;;8.32;;
76131;SDS011;64877;50.994;13.650;2022-12-18T02:36:05;17.35;;;7.10;;
76131;SDS011;64877;50.994;13.650;2022-12-18T02:38:32;17.80;;;8.52;;
76131;SDS011;64877;50.994;13.650;2022-12-18T02:40:59;14.45;;;6.75;;
76131;SDS011;64877;50.994;13.650;2022-12-18T02:43:25;13.90;;;7.00;;
76131;SDS011;64877;50.994;13.650;2022-12-18T02:45:55;17.45;;;7.47;;
76131;SDS011;64877;50.994;13.650;2022-12-18T02:48:23;16.73;;;7.20;;
76131;SDS011;64877;50.994;13.650;2022-12-18T02:53:26;18.42;;;7.70;;
76131;SDS011;64877;50.994;13.650;2022-12-18T02:59:02;15.55;;;7.95;;
76131;SDS011;64877;50.994;13.650;2022-12-18T03:01:38;18.05;;;8.10;;
76131;SDS011;64877;50.994;13.650;2022-12-18T03:04:05;17.48;;;7.10;;
76131;SDS011;64877;50.994;13.650;2022-12-18T03:06:40;16.20;;;7.80;;
76131;SDS011;64877;50.994;13.650;2022-12-18T03:09:13;19.55;;;7.78;;
76131;SDS011;64877;50.994;13.650;2022-12-18T03:11:44;16.65;;;7.10;;
76131;SDS011;64877;50.994;13.650;2022-12-18T03:14:34;17.63;;;6.45;;
76131;SDS011;64877;50.994;13.650;2022-12-18T03:17:03;14.80;;;7.15;;
76131;SDS011;64877;50.994;13.650;2022-12-18T03:19:32;18.63;;;7.70;;
76131;SDS011;64877;50.994;13.650;2022-12-18T03:22:00;17.98;;;7.38;;
76131;SDS011;64877;50.994;13.650;2022-12-18T03:24:29;20.92;;;8.30;;
76131;SDS011;64877;50.994;13.650;2022-12-18T03:26:57;15.27;;;7.13;;
76131;SDS011;64877;50.994;13.650;2022-12-18T03:29:48;12.43;;;6.40;;
76131;SDS011;64877;50.994;13.650;2022-12-18T03:32:20;15.07;;;6.38;;
76131;SDS011;64877;50.994;13.650;2022-12-18T03:34:51;17.27;;;6.13;;
76131;SDS011;64877;50.994;13.650;2022-12-18T03:37:20;18.25;;;6.75;;
76131;SDS011;64877;50.994;13.650;2022-12-18T03:39:45;17.13;;;6.85;;
76131;SDS011;64877;50.994;13.650;2022-12-18T03:42:32;23.70;;;9.75;;
76131;SDS011;64877;50.994;13.650;2022-12-18T03:45:28;14.45;;;6.97;;
76131;SDS011;64877;50.994;13.650;2022-12-18T03:48:19;21.42;;;7.82;;
76131;SDS011;64877;50.994;13.650;2022-12-18T03:51:11;20.10;;;9.18;;
76131;SDS011;64877;50.994;13.650;2022-12-18T03:53:58;24.13;;;9.75;;
76131;SDS011;64877;50.994;13.650;2022-12-18T03:56:26;23.45;;;8.32;;
76131;SDS011;64877;50.994;13.650;2022-12-18T03:58:54;20.40;;;9.20;;
76131;SDS011;64877;50.994;13.650;2022-12-18T04:01:23;28.08;;;9.65;;
76131;SDS011;64877;50.994;13.650;2022-12-18T04:03:53;18.55;;;7.55;;
76131;SDS011;64877;50.994;13.650;2022-12-18T04:06:20;21.85;;;9.23;;
76131;SDS011;64877;50.994;13.650;2022-12-18T04:08:46;21.60;;;8.45;;
76131;SDS011;64877;50.994;13.650;2022-12-18T04:11:12;17.10;;;7.18;;
76131;SDS011;64877;50.994;13.650;2022-12-18T04:13:38;15.70;;;6.55;;
76131;SDS011;64877;50.994;13.650;2022-12-18T04:16:04;18.10;;;8.48;;
76131;SDS011;64877;50.994;13.650;2022-12-18T04:18:30;17.25;;;8.52;;
76131;SDS011;64877;50.994;13.650;2022-12-18T04:20:55;16.60;;;8.20;;
76131;SDS011;64877;50.994;13.650;2022-12-18T04:23:21;17.65;;;7.25;;
76131;SDS011;64877;50.994;13.650;2022-12-18T04:25:47;12.23;;;5.68;;
76131;SDS011;64877;50.994;13.650;2022-12-18T04:28:12;13.35;;;5.72;;
76131;SDS011;64877;50.994;13.650;2022-12-18T04:30:38;14.02;;;5.72;;
76131;SDS011;64877;50.994;13.650;2022-12-18T04:33:03;17.33;;;7.68;;
76131;SDS011;64877;50.994;13.650;2022-12-18T04:35:29;18.95;;;6.82;;
76131;SDS011;64877;50.994;13.650;2022-12-18T04:37:55;16.75;;;8.13;;
76131;SDS011;64877;50.994;13.650;2022-12-18T04:40:20;15.10;;;6.43;;
76131;SDS011;64877;50.994;13.650;2022-12-18T04:42:46;14.20;;;6.15;;
76131;SDS011;64877;50.994;13.650;2022-12-18T04:45:11;18.45;;;5.40;;
76131;SDS011;64877;50.994;13.650;2022-12-18T04:47:37;17.65;;;7.38;;
76131;SDS011;64877;50.994;13.650;2022-12-18T04:50:02;18.13;;;6.90;;
76131;SDS011;64877;50.994;13.650;2022-12-18T04:52:28;14.00;;;6.32;;
76131;SDS011;64877;50.994;13.650;2022-12-18T04:54:56;14.43;;;6.10;;
76131;SDS011;64877;50.994;13.650;2022-12-18T04:57:21;13.38;;;6.57;;
76131;SDS011;64877;50.994;13.650;2022-12-18T04:59:47;15.00;;;7.03;;
76131;SDS011;64877;50.994;13.650;2022-12-18T05:02:12;17.55;;;7.55;;
76131;SDS011;64877;50.994;13.650;2022-12-18T05:04:37;24.20;;;9.85;;
76131;SDS011;64877;50.994;13.650;2022-12-18T05:07:04;18.33;;;7.85;;
76131;SDS011;64877;50.994;13.650;2022-12-18T05:09:29;24.95;;;10.57;;
76131;SDS011;64877;50.994;13.650;2022-12-18T05:11:54;26.63;;;10.25;;
76131;SDS011;64877;50.994;13.650;2022-12-18T05:14:20;12.20;;;5.60;;
76131;SDS011;64877;50.994;13.650;2022-12-18T05:16:45;9.80;;;5.00;;
76131;SDS011;64877;50.994;13.650;2022-12-18T05:19:11;11.60;;;5.35;;
76131;SDS011;64877;50.994;13.650;2022-12-18T05:21:36;22.92;;;9.88;;
76131;SDS011;64877;50.994;13.650;2022-12-18T05:24:01;15.60;;;6.90;;
76131;SDS011;64877;50.994;13.650;2022-12-18T05:26:27;15.45;;;5.97;;
76131;SDS011;64877;50.994;13.650;2022-12-18T05:28:52;11.13;;;5.88;;
76131;SDS011;64877;50.994;13.650;2022-12-18T05:31:18;12.93;;;5.50;;
76131;SDS011;64877;50.994;13.650;2022-12-18T05:33:43;15.23;;;5.70;;
76131;SDS011;64877;50.994;13.650;2022-12-18T05:36:09;26.15;;;9.85;;
76131;SDS011;64877;50.994;13.650;2022-12-18T05:38:35;27.75;;;11.35;;
76131;SDS011;64877;50.994;13.650;2022-12-18T05:41:02;26.20;;;11.40;;
76131;SDS011;64877;50.994;13.650;2022-12-18T05:43:28;18.50;;;7.13;;
76131;SDS011;64877;50.994;13.650;2022-12-18T05:45:54;18.83;;;6.47;;
76131;SDS011;64877;50.994;13.650;2022-12-18T05:48:20;22.35;;;8.18;;
76131;SDS011;64877;50.994;13.650;2022-12-18T05:50:46;18.60;;;7.47;;
76131;SDS011;64877;50.994;13.650;2022-12-18T05:53:14;28.35;;;12.02;;
76131;SDS011;64877;50.994;13.650;2022-12-18T05:55:41;18.05;;;7.65;;
76131;SDS011;64877;50.994;13.650;2022-12-18T05:58:08;14.20;;;5.15;;
76131;SDS011;64877;50.994;13.650;2022-12-18T06:00:36;10.40;;;4.70;;
76131;SDS011;64877;50.994;13.650;2022-12-18T06:03:06;22.75;;;10.23;;
76131;SDS011;64877;50.994;13.650;2022-12-18T06:05:37;26.38;;;11.48;;
76131;SDS011;64877;50.994;13.650;2022-12-18T06:08:03;36.13;;;17.95;;
76131;SDS011;64877;50.994;13.650;2022-12-18T06:10:29;35.03;;;16.00;;
76131;SDS011;64877;50.994;13.650;2022-12-18T06:12:55;19.30;;;7.97;;
76131;SDS011;64877;50.994;13.650;2022-12-18T06:15:20;23.73;;;11.35;;
76131;SDS011;64877;50.994;13.650;2022-12-18T06:17:45;21.77;;;9.07;;
76131;SDS011;64877;50.994;13.650;2022-12-18T06:20:11;19.25;;;9.55;;
76131;SDS011;64877;50.994;13.650;2022-12-18T06:22:36;11.25;;;4.97;;
76131;SDS011;64877;50.994;13.650;2022-12-18T06:25:02;10.63;;;4.07;;
76131;SDS011;64877;50.994;13.650;2022-12-18T06:27:27;11.32;;;5.38;;
76131;SDS011;64877;50.994;13.650;2022-12-18T06:29:53;13.63;;;7.55;;
76131;SDS011;64877;50.994;13.650;2022-12-18T06:32:18;17.40;;;8.00;;
76131;SDS011;64877;50.994;13.650;2022-12-18T06:34:43;20.13;;;9.75;;
76131;SDS011;64877;50.994;13.650;2022-12-18T06:37:09;31.75;;;12.35;;
76131;SDS011;64877;50.994;13.650;2022-12-18T06:39:34;24.92;;;13.95;;
76131;SDS011;64877;50.994;13.650;2022-12-18T06:41:59;25.80;;;13.15;;
76131;SDS011;64877;50.994;13.650;2022-12-18T06:44:25;22.17;;;9.68;;
76131;SDS011;64877;50.994;13.650;2022-12-18T06:46:50;16.60;;;9.32;;
76131;SDS011;64877;50.994;13.650;2022-12-18T06:49:15;17.08;;;7.80;;
76131;SDS011;64877;50.994;13.650;2022-12-18T06:51:41;22.48;;;8.07;;
76131;SDS011;64877;50.994;13.650;2022-12-18T06:54:07;21.98;;;9.75;;
76131;SDS011;64877;50.994;13.650;2022-12-18T06:56:33;15.00;;;7.40;;
76131;SDS011;64877;50.994;13.650;2022-12-18T06:58:58;12.07;;;5.28;;
76131;SDS011;64877;50.994;13.650;2022-12-18T07:01:23;13.38;;;6.18;;
76131;SDS011;64877;50.994;13.650;2022-12-18T07:03:52;32.10;;;13.52;;
76131;SDS011;64877;50.994;13.650;2022-12-18T07:06:20;21.00;;;8.85;;
76131;SDS011;64877;50.994;13.650;2022-12-18T07:08:47;21.70;;;8.68;;
76131;SDS011;64877;50.994;13.650;2022-12-18T07:11:14;21.58;;;9.95;;
76131;SDS011;64877;50.994;13.650;2022-12-18T07:13:39;27.70;;;13.65;;
76131;SDS011;64877;50.994;13.650;2022-12-18T07:18:31;24.02;;;9.55;;
76131;SDS011;64877;50.994;13.650;2022-12-18T07:20:56;29.95;;;14.32;;
76131;SDS011;64877;50.994;13.650;2022-12-18T07:23:21;27.65;;;13.35;;
76131;SDS011;64877;50.994;13.650;2022-12-18T07:25:47;23.35;;;9.05;;
76131;SDS011;64877;50.994;13.650;2022-12-18T07:28:12;23.75;;;10.38;;
76131;SDS011;64877;50.994;13.650;2022-12-18T07:30:37;26.67;;;8.43;;
76131;SDS011;64877;50.994;13.650;2022-12-18T07:33:03;18.60;;;8.05;;
76131;SDS011;64877;50.994;13.650;2022-12-18T07:35:28;17.45;;;7.72;;
76131;SDS011;64877;50.994;13.650;2022-12-18T07:37:54;22.40;;;8.43;;
76131;SDS011;64877;50.994;13.650;2022-12-18T07:40:19;19.42;;;7.30;;
76131;SDS011;64877;50.994;13.650;2022-12-18T07:42:45;18.48;;;7.35;;
76131;SDS011;64877;50.994;13.650;2022-12-18T07:45:10;19.50;;;7.93;;
76131;SDS011;64877;50.994;13.650;2022-12-18T07:47:35;20.13;;;7.97;;
76131;SDS011;64877;50.994;13.650;2022-12-18T07:50:02;15.63;;;6.47;;
76131;SDS011;64877;50.994;13.650;2022-12-18T07:52:29;27.95;;;11.10;;
76131;SDS011;64877;50.994;13.650;2022-12-18T07:54:54;30.30;;;13.02;;
76131;SDS011;64877;50.994;13.650;2022-12-18T07:57:19;22.70;;;11.02;;
76131;SDS011;64877;50.994;13.650;2022-12-18T07:59:45;16.30;;;7.15;;
76131;SDS011;64877;50.994;13.650;2022-12-18T08:02:10;16.90;;;8.65;;
76131;SDS011;64877;50.994;13.650;2022-12-18T08:04:36;23.08;;;11.43;;
76131;SDS011;64877;50.994;13.650;2022-12-18T08:07:01;34.40;;;17.13;;
76131;SDS011;64877;50.994;13.650;2022-12-18T08:09:27;33.78;;;13.88;;
76131;SDS011;64877;50.994;13.650;2022-12-18T08:11:52;22.38;;;10.30;;
76131;SDS011;64877;50.994;13.650;2022-12-18T08:14:17;20.35;;;7.80;;
76131;SDS011;64877;50.994;13.650;2022-12-18T08:16:43;17.00;;;7.65;;
76131;SDS011;64877;50.994;13.650;2022-12-18T08:19:11;28.13;;;12.70;;
76131;SDS011;64877;50.994;13.650;2022-12-18T08:24:02;29.83;;;14.50;;
76131;SDS011;64877;50.994;13.650;2022-12-18T08:26:29;27.00;;;10.80;;
76131;SDS011;64877;50.994;13.650;2022-12-18T08:28:56;26.10;;;11.10;;
76131;SDS011;64877;50.994;13.650;2022-12-18T08:31:23;19.42;;;9.82;;
76131;SDS011;64877;50.994;13.650;2022-12-18T08:33:49;16.95;;;8.70;;
76131;SDS011;64877;50.994;13.650;2022-12-18T08:36:17;19.13;;;8.45;;
76131;SDS011;64877;50.994;13.650;2022-12-18T08:38:43;19.60;;;9.30;;
76131;SDS011;64877;50.994;13.650;2022-12-18T08:41:09;16.95;;;8.50;;
76131;SDS011;64877;50.994;13.650;2022-12-18T08:43:36;16.33;;;8.45;;
76131;SDS011;64877;50.994;13.650;2022-12-18T08:46:20;18.33;;;9.05;;
76131;SDS011;64877;50.994;13.650;2022-12-18T08:48:47;22.40;;;8.82;;
76131;SDS011;64877;50.994;13.650;2022-12-18T08:51:12;18.40;;;9.40;;
76131;SDS011;64877;50.994;13.650;2022-12-18T08:53:40;21.33;;;9.38;;
76131;SDS011;64877;50.994;13.650;2022-12-18T08:56:05;18.42;;;8.98;;
76131;SDS011;64877;50.994;13.650;2022-12-18T08:58:31;17.17;;;7.63;;
76131;SDS011;64877;50.994;13.650;2022-12-18T09:01:03;17.38;;;8.40;;
76131;SDS011;64877;50.994;13.650;2022-12-18T09:03:29;18.00;;;8.73;;
76131;SDS011;64877;50.994;13.650;2022-12-18T09:05:55;19.60;;;8.45;;
76131;SDS011;64877;50.994;13.650;2022-12-18T09:08:20;17.77;;;8.77;;
76131;SDS011;64877;50.994;13.650;2022-12-18T09:10:47;18.17;;;8.68;;
76131;SDS011;64877;50.994;13.650;2022-12-18T09:13:14;17.45;;;8.52;;
76131;SDS011;64877;50.994;13.650;2022-12-18T09:15:44;18.33;;;9.52;;
76131;SDS011;64877;50.994;13.650;2022-12-18T09:18:11;19.75;;;10.18;;
76131;SDS011;64877;50.994;13.650;2022-12-18T09:20:38;19.35;;;9.77;;
76131;SDS011;64877;50.994;13.650;2022-12-18T09:23:04;18.58;;;10.07;;
76131;SDS011;64877;50.994;13.650;2022-12-18T09:25:31;22.15;;;9.25;;
76131;SDS011;64877;50.994;13.650;2022-12-18T09:27:58;18.60;;;10.20;;
76131;SDS011;64877;50.994;13.650;2022-12-18T09:30:25;21.88;;;10.30;;
76131;SDS011;64877;50.994;13.650;2022-12-18T09:32:50;21.42;;;9.80;;
76131;SDS011;64877;50.994;13.650;2022-12-18T09:35:18;20.05;;;9.32;;
76131;SDS011;64877;50.994;13.650;2022-12-18T09:37:44;20.05;;;9.60;;
76131;SDS011;64877;50.994;13.650;2022-12-18T09:40:19;20.65;;;10.23;;
76131;SDS011;64877;50.994;13.650;2022-12-18T09:42:50;25.45;;;11.52;;
76131;SDS011;64877;50.994;13.650;2022-12-18T09:45:18;21.38;;;11.20;;
76131;SDS011;64877;50.994;13.650;2022-12-18T09:47:44;21.75;;;11.13;;
76131;SDS011;64877;50.994;13.650;2022-12-18T09:50:25;24.75;;;11.93;;
76131;SDS011;64877;50.994;13.650;2022-12-18T09:52:57;24.58;;;11.77;;
76131;SDS011;64877;50.994;13.650;2022-12-18T09:55:34;26.83;;;12.18;;
76131;SDS011;64877;50.994;13.650;2022-12-18T09:58:14;23.73;;;11.60;;
76131;SDS011;64877;50.994;13.650;2022-12-18T10:00:45;20.65;;;11.73;;
76131;SDS011;64877;50.994;13.650;2022-12-18T10:03:14;23.50;;;11.70;;
76131;SDS011;64877;50.994;13.650;2022-12-18T10:28:24;21.25;;;11.25;;
76131;SDS011;64877;50.994;13.650;2022-12-18T10:30:51;29.00;;;14.45;;
76131;SDS011;64877;50.994;13.650;2022-12-18T10:33:19;25.50;;;14.15;;
76131;SDS011;64877;50.994;13.650;2022-12-18T10:35:48;25.67;;;12.43;;
76131;SDS011;64877;50.994;13.650;2022-12-18T10:40:48;27.23;;;13.07;;
76131;SDS011;64877;50.994;13.650;2022-12-18T10:43:22;25.08;;;13.77;;
76131;SDS011;64877;50.994;13.650;2022-12-18T10:46:08;23.75;;;12.88;;
76131;SDS011;64877;50.994;13.650;2022-12-18T10:49:00;28.08;;;14.05;;
76131;SDS011;64877;50.994;13.650;2022-12-18T10:51:29;23.45;;;12.90;;
76131;SDS011;64877;50.994;13.650;2022-12-18T10:54:18;24.45;;;13.05;;
76131;SDS011;64877;50.994;13.650;2022-12-18T10:56:46;25.20;;;12.90;;
76131;SDS011;64877;50.994;13.650;2022-12-18T10:59:13;28.77;;;13.23;;
76131;SDS011;64877;50.994;13.650;2022-12-18T11:01:48;25.83;;;14.13;;
76131;SDS011;64877;50.994;13.650;2022-12-18T11:04:20;25.45;;;12.70;;
76131;SDS011;64877;50.994;13.650;2022-12-18T11:09:39;28.65;;;14.10;;
76131;SDS011;64877;50.994;13.650;2022-12-18T11:14:42;24.42;;;13.68;;
76131;SDS011;64877;50.994;13.650;2022-12-18T11:20:07;29.42;;;14.70;;
76131;SDS011;64877;50.994;13.650;2022-12-18T11:23:04;35.78;;;16.92;;
76131;SDS011;64877;50.994;13.650;2022-12-18T11:25:35;30.08;;;15.15;;
76131;SDS011;64877;50.994;13.650;2022-12-18T11:28:05;37.45;;;16.92;;
76131;SDS011;64877;50.994;13.650;2022-12-18T11:30:49;34.15;;;16.67;;
76131;SDS011;64877;50.994;13.650;2022-12-18T11:34:10;31.85;;;15.30;;
76131;SDS011;64877;50.994;13.650;2022-12-18T11:36:43;26.25;;;14.90;;
76131;SDS011;64877;50.994;13.650;2022-12-18T11:42:08;24.90;;;13.18;;
76131;SDS011;64877;50.994;13.650;2022-12-18T11:44:38;30.10;;;15.55;;
76131;SDS011;64877;50.994;13.650;2022-12-18T11:47:09;27.13;;;13.25;;
76131;SDS011;64877;50.994;13.650;2022-12-18T11:49:47;29.63;;;13.52;;
76131;SDS011;64877;50.994;13.650;2022-12-18T11:52:16;29.08;;;13.60;;
76131;SDS011;64877;50.994;13.650;2022-12-18T11:54:52;26.25;;;12.98;;
76131;SDS011;64877;50.994;13.650;2022-12-18T11:57:42;87.28;;;15.70;;
76131;SDS011;64877;50.994;13.650;2022-12-18T12:30:17;27.70;;;12.10;;
76131;SDS011;64877;50.994;13.650;2022-12-18T12:36:20;25.92;;;12.13;;
76131;SDS011;64877;50.994;13.650;2022-12-18T12:38:18;30.58;;;14.70;;
76131;SDS011;64877;50.994;13.650;2022-12-18T12:40:51;27.85;;;12.70;;
76131;SDS011;64877;50.994;13.650;2022-12-18T12:46:06;31.58;;;12.68;;
76131;SDS011;64877;50.994;13.650;2022-12-18T12:48:43;30.85;;;12.48;;
76131;SDS011;64877;50.994;13.650;2022-12-18T12:51:30;31.52;;;13.85;;
76131;SDS011;64877;50.994;13.650;2022-12-18T12:53:59;31.63;;;13.55;;
76131;SDS011;64877;50.994;13.650;2022-12-18T13:04:30;34.92;;;14.60;;
76131;SDS011;64877;50.994;13.650;2022-12-18T13:13:27;30.70;;;14.65;;
76131;SDS011;64877;50.994;13.650;2022-12-18T13:20:41;31.58;;;14.43;;
76131;SDS011;64877;50.994;13.650;2022-12-18T13:23:49;30.23;;;13.27;;
76131;SDS011;64877;50.994;13.650;2022-12-18T13:31:13;31.00;;;12.45;;
76131;SDS011;64877;50.994;13.650;2022-12-18T13:33:42;33.10;;;13.00;;
76131;SDS011;64877;50.994;13.650;2022-12-18T13:38:38;29.35;;;13.35;;
76131;SDS011;64877;50.994;13.650;2022-12-18T13:41:12;29.50;;;12.93;;
76131;SDS011;64877;50.994;13.650;2022-12-18T13:46:29;27.95;;;12.75;;
76131;SDS011;64877;50.994;13.650;2022-12-18T13:49:05;27.08;;;11.40;;
76131;SDS011;64877;50.994;13.650;2022-12-18T13:51:41;28.27;;;12.57;;
76131;SDS011;64877;50.994;13.650;2022-12-18T13:57:00;26.65;;;12.07;;
76131;SDS011;64877;50.994;13.650;2022-12-18T13:59:33;24.65;;;10.52;;
76131;SDS011;64877;50.994;13.650;2022-12-18T14:02:01;27.00;;;12.27;;
76131;SDS011;64877;50.994;13.650;2022-12-18T14:04:37;26.02;;;11.02;;
76131;SDS011;64877;50.994;13.650;2022-12-18T14:09:29;26.75;;;12.02;;
76131;SDS011;64877;50.994;13.650;2022-12-18T14:11:59;28.70;;;12.18;;
76131;SDS011;64877;50.994;13.650;2022-12-18T14:15:00;25.10;;;10.82;;
76131;SDS011;64877;50.994;13.650;2022-12-18T14:17:27;30.58;;;10.38;;
76131;SDS011;64877;50.994;13.650;2022-12-18T14:19:52;29.02;;;11.88;;
76131;SDS011;64877;50.994;13.650;2022-12-18T14:22:22;31.95;;;12.10;;
76131;SDS011;64877;50.994;13.650;2022-12-18T14:27:38;26.75;;;10.45;;
76131;SDS011;64877;50.994;13.650;2022-12-18T14:30:23;26.48;;;11.27;;
76131;SDS011;64877;50.994;13.650;2022-12-18T14:33:05;27.30;;;10.70;;
76131;SDS011;64877;50.994;13.650;2022-12-18T14:35:35;29.75;;;11.98;;
76131;SDS011;64877;50.994;13.650;2022-12-18T14:43:36;28.00;;;11.68;;
76131;SDS011;64877;50.994;13.650;2022-12-18T14:46:25;25.08;;;10.68;;
76131;SDS011;64877;50.994;13.650;2022-12-18T14:48:52;29.65;;;11.70;;
76131;SDS011;64877;50.994;13.650;2022-12-18T14:51:19;26.92;;;11.32;;
76131;SDS011;64877;50.994;13.650;2022-12-18T14:53:48;30.70;;;12.07;;
76131;SDS011;64877;50.994;13.650;2022-12-18T14:56:23;30.33;;;12.57;;
76131;SDS011;64877;50.994;13.650;2022-12-18T15:01:45;31.08;;;12.02;;
76131;SDS011;64877;50.994;13.650;2022-12-18T15:06:50;25.88;;;11.18;;
76131;SDS011;64877;50.994;13.650;2022-12-18T15:09:28;26.50;;;11.15;;
76131;SDS011;64877;50.994;13.650;2022-12-18T15:11:58;27.65;;;12.23;;
76131;SDS011;64877;50.994;13.650;2022-12-18T15:16:57;28.92;;;12.52;;
76131;SDS011;64877;50.994;13.650;2022-12-18T15:19:32;29.98;;;12.23;;
76131;SDS011;64877;50.994;13.650;2022-12-18T15:21:58;32.83;;;13.00;;
76131;SDS011;64877;50.994;13.650;2022-12-18T15:24:26;32.58;;;13.35;;
76131;SDS011;64877;50.994;13.650;2022-12-18T15:26:56;29.58;;;12.38;;
76131;SDS011;64877;50.994;13.650;2022-12-18T15:29:22;34.67;;;13.02;;
76131;SDS011;64877;50.994;13.650;2022-12-18T15:32:03;29.67;;;12.77;;
76131;SDS011;64877;50.994;13.650;2022-12-18T15:34:30;27.38;;;12.55;;
76131;SDS011;64877;50.994;13.650;2022-12-18T15:36:58;34.70;;;14.10;;
76131;SDS011;64877;50.994;13.650;2022-12-18T15:39:24;32.28;;;13.77;;
76131;SDS011;64877;50.994;13.650;2022-12-18T15:41:49;26.90;;;13.10;;
76131;SDS011;64877;50.994;13.650;2022-12-18T15:44:33;31.98;;;13.23;;
76131;SDS011;64877;50.994;13.650;2022-12-18T15:46:59;32.50;;;14.00;;
76131;SDS011;64877;50.994;13.650;2022-12-18T15:49:24;33.33;;;14.88;;
76131;SDS011;64877;50.994;13.650;2022-12-18T15:51:51;44.05;;;15.63;;
76131;SDS011;64877;50.994;13.650;2022-12-18T15:54:19;35.17;;;15.63;;
76131;SDS011;64877;50.994;13.650;2022-12-18T15:57:09;41.53;;;15.65;;
76131;SDS011;64877;50.994;13.650;2022-12-18T15:59:54;32.70;;;14.32;;
76131;SDS011;64877;50.994;13.650;2022-12-18T16:02:22;32.83;;;13.57;;
76131;SDS011;64877;50.994;13.650;2022-12-18T16:04:49;32.10;;;15.50;;
76131;SDS011;64877;50.994;13.650;2022-12-18T16:07:18;28.27;;;12.15;;
76131;SDS011;64877;50.994;13.650;2022-12-18T16:09:47;37.40;;;14.38;;
76131;SDS011;64877;50.994;13.650;2022-12-18T16:14:45;27.25;;;11.65;;
76131;SDS011;64877;50.994;13.650;2022-12-18T16:17:12;32.78;;;14.10;;
76131;SDS011;64877;50.994;13.650;2022-12-18T16:19:38;36.75;;;14.10;;
76131;SDS011;64877;50.994;13.650;2022-12-18T16:22:04;35.13;;;14.35;;
76131;SDS011;64877;50.994;13.650;2022-12-18T16:24:30;36.33;;;14.93;;
76131;SDS011;64877;50.994;13.650;2022-12-18T16:26:59;33.22;;;14.60;;
76131;SDS011;64877;50.994;13.650;2022-12-18T16:29:25;30.33;;;14.20;;
76131;SDS011;64877;50.994;13.650;2022-12-18T16:31:56;32.92;;;14.52;;
76131;SDS011;64877;50.994;13.650;2022-12-18T16:34:23;35.17;;;13.52;;
76131;SDS011;64877;50.994;13.650;2022-12-18T16:36:53;33.97;;;14.90;;
76131;SDS011;64877;50.994;13.650;2022-12-18T16:39:19;33.17;;;15.77;;
76131;SDS011;64877;50.994;13.650;2022-12-18T16:41:45;34.45;;;16.95;;
76131;SDS011;64877;50.994;13.650;2022-12-18T16:44:11;36.45;;;16.25;;
76131;SDS011;64877;50.994;13.650;2022-12-18T16:46:37;35.28;;;16.55;;
76131;SDS011;64877;50.994;13.650;2022-12-18T16:49:03;37.63;;;18.85;;
76131;SDS011;64877;50.994;13.650;2022-12-18T16:51:32;49.25;;;22.00;;
76131;SDS011;64877;50.994;13.650;2022-12-18T16:53:58;42.30;;;21.08;;
76131;SDS011;64877;50.994;13.650;2022-12-18T16:56:23;44.72;;;21.77;;